Time;durP1;ratioP1;P1;durP2;ratioP2;P2;SDS_P1;SDS_P2;PMS_P1;PMS_P2;Temp;Humidity;BMP_temperature;BMP_pressure;BME280_temperature;BME280_humidity;BME280_pressure;Samples;Min_cycle;Max_cycle;Signal;HPM_P1;HPM_P2
2021/03/22 00:02:25;;;;;;;0.77;0.77;;;;;;;;;;5086325;28;20180;-69
2021/03/22 00:04:51;;;;;;;0.10;0.10;;;;;;;;;;5072041;28;20188;-68
2021/03/22 00:07:17;;;;;;;0.10;0.10;;;;;;;;;;5054465;28;20177;-68
2021/03/22 00:09:44;;;;;;;0.10;0.10;;;;;;;;;;5092036;28;20184;-68
2021/03/22 00:12:10;;;;;;;0.10;0.10;;;;;;;;;;5073947;28;20721;-69
2021/03/22 00:14:36;;;;;;;0.10;0.10;;;;;;;;;;5091903;28;20192;-68
2021/03/22 00:17:03;;;;;;;0.10;0.10;;;;;;;;;;5091915;28;20160;-69
2021/03/22 00:19:32;;;;;;;1.17;0.90;;;;;;;;;;5073826;28;20176;-68
2021/03/22 00:21:58;;;;;;;0.10;0.10;;;;;;;;;;5091830;28;20164;-67
2021/03/22 00:24:24;;;;;;;0.90;0.90;;;;;;;;;;5091735;28;20195;-67
2021/03/22 00:26:51;;;;;;;0.20;0.20;;;;;;;;;;5091842;28;20220;-67
2021/03/22 00:29:17;;;;;;;0.10;0.10;;;;;;;;;;5091687;28;20164;-67
2021/03/22 00:31:43;;;;;;;0.15;0.15;;;;;;;;;;5073163;28;20199;-68
2021/03/22 00:34:09;;;;;;;0.15;0.15;;;;;;;;;;5073517;28;20214;-69
2021/03/22 00:36:35;;;;;;;6.03;1.88;;;;;;;;;;5091602;28;20167;-69
2021/03/22 00:39:02;;;;;;;0.45;0.45;;;;;;;;;;5091606;28;20592;-67
2021/03/22 00:41:28;;;;;;;0.52;0.52;;;;;;;;;;5091428;28;20528;-67
2021/03/22 00:43:54;;;;;;;0.43;0.43;;;;;;;;;;5091428;28;20203;-75
2021/03/22 00:46:20;;;;;;;1.08;1.00;;;;;;;;;;5073309;28;20207;-74
2021/03/22 00:48:46;;;;;;;0.10;0.10;;;;;;;;;;5091053;28;20228;-74
2021/03/22 00:51:12;;;;;;;0.60;0.60;;;;;;;;;;5091227;28;20210;-74
2021/03/22 00:53:38;;;;;;;0.10;0.10;;;;;;;;;;5091198;28;20191;-74
2021/03/22 00:56:05;;;;;;;0.30;0.30;;;;;;;;;;5091208;28;20156;-74
2021/03/22 00:58:31;;;;;;;0.10;0.10;;;;;;;;;;5091188;28;20153;-74
2021/03/22 01:00:59;;;;;;;0.10;0.10;;;;;;;;;;5091133;28;20179;-74
2021/03/22 01:03:30;;;;;;;0.10;0.10;;;;;;;;;;5090847;28;20200;-74
2021/03/22 01:05:56;;;;;;;0.10;0.10;;;;;;;;;;5072206;28;20180;-74
2021/03/22 01:08:25;;;;;;;0.10;0.10;;;;;;;;;;5084463;28;20184;-74
2021/03/22 01:10:53;;;;;;;0.20;0.20;;;;;;;;;;5090848;28;20195;-74
2021/03/22 01:13:20;;;;;;;0.10;0.10;;;;;;;;;;5090862;28;20192;-74
2021/03/22 01:15:47;;;;;;;0.10;0.10;;;;;;;;;;5073878;28;20188;-75
2021/03/22 01:18:14;;;;;;;0.10;0.10;;;;;;;;;;5050648;28;20184;-74
2021/03/22 01:20:48;;;;;;;0.10;0.10;;;;;;;;;;5050692;28;20166;-73
2021/03/22 01:23:15;;;;;;;0.10;0.10;;;;;;;;;;5050530;28;20200;-73
2021/03/22 01:25:41;;;;;;;0.10;0.10;;;;;;;;;;5050518;28;20236;-75
2021/03/22 01:28:09;;;;;;;0.13;0.13;;;;;;;;;;5032610;28;20177;-75
2021/03/22 01:30:50;;;;;;;0.10;0.10;;;;;;;;;;5032538;28;20166;-73
2021/03/22 01:33:19;;;;;;;0.10;0.10;;;;;;;;;;5050370;28;20276;-73
2021/03/22 01:35:45;;;;;;;0.30;0.30;;;;;;;;;;5032430;28;20576;-75
2021/03/22 01:38:12;;;;;;;0.08;0.08;;;;;;;;;;5049544;28;20192;-74
2021/03/22 01:40:38;;;;;;;0.20;0.20;;;;;;;;;;5050254;28;20158;-73
2021/03/22 01:43:08;;;;;;;0.45;0.45;;;;;;;;;;5049266;28;20177;-73
2021/03/22 01:45:35;;;;;;;0.10;0.10;;;;;;;;;;5050054;28;20189;-72
2021/03/22 01:48:01;;;;;;;0.08;0.08;;;;;;;;;;5032086;28;20220;-73
2021/03/22 01:50:30;;;;;;;0.45;0.45;;;;;;;;;;5049962;28;20173;-73
2021/03/22 01:52:58;;;;;;;0.10;0.10;;;;;;;;;;5050052;28;20252;-73
2021/03/22 01:55:25;;;;;;;0.10;0.10;;;;;;;;;;5049919;28;20549;-73
2021/03/22 01:57:51;;;;;;;0.10;0.10;;;;;;;;;;5032166;28;20173;-73
2021/03/22 02:00:27;;;;;;;0.45;0.45;;;;;;;;;;5049936;28;20168;-73
2021/03/22 02:02:55;;;;;;;0.10;0.10;;;;;;;;;;5032104;28;20169;-74
2021/03/22 02:05:25;;;;;;;0.10;0.10;;;;;;;;;;5032066;28;20193;-75
2021/03/22 02:08:01;;;;;;;0.10;0.10;;;;;;;;;;5049805;28;20181;-75
2021/03/22 02:10:27;;;;;;;0.10;0.10;;;;;;;;;;5031938;28;20177;-73
2021/03/22 02:12:53;;;;;;;0.10;0.10;;;;;;;;;;5049706;28;20154;-75
2021/03/22 02:15:20;;;;;;;0.10;0.10;;;;;;;;;;5031857;28;20185;-75
2021/03/22 02:17:52;;;;;;;0.10;0.10;;;;;;;;;;5049633;28;20168;-75
2021/03/22 02:20:37;;;;;;;0.10;0.10;;;;;;;;;;5049627;28;20161;-75
2021/03/22 02:23:19;;;;;;;0.10;0.10;;;;;;;;;;5049553;28;20165;-75
2021/03/22 02:25:53;;;;;;;0.13;0.13;;;;;;;;;;5049431;28;20197;-75
2021/03/22 02:28:22;;;;;;;0.10;0.10;;;;;;;;;;5049586;28;20630;-75
2021/03/22 02:31:04;;;;;;;0.10;0.10;;;;;;;;;;5049425;28;20200;-74
2021/03/22 02:33:48;;;;;;;0.60;0.22;;;;;;;;;;5049394;28;20165;-74
2021/03/22 02:36:17;;;;;;;0.10;0.10;;;;;;;;;;5031635;28;20203;-75
2021/03/22 02:38:47;;;;;;;0.10;0.10;;;;;;;;;;5049381;28;20158;-75
2021/03/22 02:41:16;;;;;;;0.10;0.10;;;;;;;;;;5049312;28;20172;-74
2021/03/22 02:43:42;;;;;;;1.17;1.17;;;;;;;;;;5049290;28;20264;-76
2021/03/22 02:46:08;;;;;;;0.10;0.10;;;;;;;;;;5049164;28;20193;-75
2021/03/22 02:48:35;;;;;;;0.10;0.10;;;;;;;;;;5035776;28;20244;-75
2021/03/22 02:51:18;;;;;;;0.25;0.25;;;;;;;;;;5029309;28;20198;-75
2021/03/22 02:53:46;;;;;;;0.10;0.10;;;;;;;;;;5020141;28;20200;-74
2021/03/22 02:56:13;;;;;;;0.20;0.20;;;;;;;;;;5055857;28;20157;-75
2021/03/22 02:58:45;;;;;;;0.20;0.20;;;;;;;;;;5055737;28;20223;-75
2021/03/22 03:01:23;;;;;;;0.10;0.10;;;;;;;;;;5037797;28;20193;-75
2021/03/22 03:03:50;;;;;;;0.10;0.10;;;;;;;;;;5055592;28;20220;-75
2021/03/22 03:06:16;;;;;;;0.10;0.10;;;;;;;;;;5037732;28;20184;-75
2021/03/22 03:08:43;;;;;;;0.20;0.20;;;;;;;;;;5037701;28;20756;-75
2021/03/22 03:11:10;;;;;;;0.20;0.20;;;;;;;;;;5037570;28;20197;-75
2021/03/22 03:13:37;;;;;;;0.10;0.10;;;;;;;;;;5055464;28;20685;-74
2021/03/22 03:16:03;;;;;;;0.17;0.17;;;;;;;;;;5055530;28;20166;-75
2021/03/22 03:18:29;;;;;;;0.10;0.10;;;;;;;;;;5055528;28;20160;-75
2021/03/22 03:20:59;;;;;;;0.10;0.10;;;;;;;;;;5055394;28;20165;-74
2021/03/22 03:23:30;;;;;;;0.20;0.20;;;;;;;;;;5037516;28;20201;-75
2021/03/22 03:25:56;;;;;;;0.17;0.17;;;;;;;;;;5055378;28;20187;-75
2021/03/22 03:28:23;;;;;;;0.20;0.20;;;;;;;;;;5055372;28;20584;-75
2021/03/22 03:30:49;;;;;;;0.22;0.22;;;;;;;;;;5055190;28;20176;-74
2021/03/22 03:33:15;;;;;;;0.10;0.10;;;;;;;;;;5055188;28;20193;-75
2021/03/22 03:35:43;;;;;;;0.10;0.10;;;;;;;;;;5055312;28;20158;-75
2021/03/22 03:38:10;;;;;;;0.10;0.10;;;;;;;;;;5037395;28;20176;-75
2021/03/22 03:40:38;;;;;;;0.10;0.10;;;;;;;;;;5055236;28;20221;-75
2021/03/22 03:43:04;;;;;;;0.10;0.10;;;;;;;;;;5054944;28;20193;-75
2021/03/22 03:45:33;;;;;;;0.13;0.13;;;;;;;;;;5055085;28;20172;-75
2021/03/22 03:47:59;;;;;;;1.40;1.13;;;;;;;;;;5063613;28;20208;-74
2021/03/22 03:50:30;;;;;;;0.50;0.50;;;;;;;;;;5075078;28;20258;-75
2021/03/22 03:52:57;;;;;;;0.40;0.40;;;;;;;;;;5056967;28;20690;-75
2021/03/22 03:55:25;;;;;;;0.50;0.50;;;;;;;;;;5056854;28;20176;-74
2021/03/22 03:57:52;;;;;;;0.10;0.10;;;;;;;;;;5057251;28;20169;-75
2021/03/22 04:00:30;;;;;;;0.20;0.20;;;;;;;;;;5074979;28;20224;-74
2021/03/22 04:02:57;;;;;;;0.10;0.10;;;;;;;;;;5074922;28;20168;-75
2021/03/22 04:05:25;;;;;;;0.10;0.10;;;;;;;;;;5074231;28;20232;-75
2021/03/22 04:07:52;;;;;;;0.10;0.10;;;;;;;;;;5071355;28;20171;-74
2021/03/22 04:10:18;;;;;;;0.10;0.10;;;;;;;;;;5071863;28;20157;-75
2021/03/22 04:12:45;;;;;;;0.20;0.20;;;;;;;;;;5071630;28;20275;-74
2021/03/22 04:15:15;;;;;;;0.10;0.10;;;;;;;;;;5071640;28;20630;-75
2021/03/22 04:17:43;;;;;;;0.10;0.10;;;;;;;;;;5071629;28;20202;-74
2021/03/22 04:20:10;;;;;;;0.20;0.20;;;;;;;;;;5071467;28;20164;-75
2021/03/22 04:22:36;;;;;;;0.32;0.32;;;;;;;;;;5071605;28;20224;-75
2021/03/22 04:25:02;;;;;;;0.10;0.10;;;;;;;;;;5071411;28;20295;-75
2021/03/22 04:27:28;;;;;;;0.00;0.00;;;;;;;;;;5071589;28;20176;-75
2021/03/22 04:29:54;;;;;;;0.20;0.20;;;;;;;;;;5053538;28;20172;-74
2021/03/22 04:32:21;;;;;;;0.10;0.10;;;;;;;;;;5071282;28;20192;-75
2021/03/22 04:34:47;;;;;;;0.10;0.10;;;;;;;;;;5071005;28;20189;-74
2021/03/22 04:37:13;;;;;;;0.10;0.10;;;;;;;;;;5071265;28;20165;-74
2021/03/22 04:39:39;;;;;;;0.10;0.10;;;;;;;;;;5053030;28;20173;-74
2021/03/22 04:42:05;;;;;;;0.10;0.10;;;;;;;;;;5071053;28;20195;-75
2021/03/22 04:44:32;;;;;;;0.30;0.25;;;;;;;;;;5070676;28;20200;-75
2021/03/22 04:46:58;;;;;;;0.45;0.45;;;;;;;;;;5070671;28;20199;-73
2021/03/22 04:49:24;;;;;;;0.10;0.10;;;;;;;;;;5070932;28;20171;-74
2021/03/22 04:51:50;;;;;;;0.20;0.20;;;;;;;;;;5070762;28;20193;-75
2021/03/22 04:54:16;;;;;;;0.10;0.10;;;;;;;;;;5070612;28;20195;-75
2021/03/22 04:56:43;;;;;;;0.10;0.10;;;;;;;;;;5052829;28;20183;-74
2021/03/22 04:59:09;;;;;;;0.10;0.10;;;;;;;;;;5070733;28;20168;-74
2021/03/22 05:01:35;;;;;;;0.10;0.10;;;;;;;;;;5052347;28;20180;-75
2021/03/22 05:04:01;;;;;;;0.40;0.40;;;;;;;;;;5070549;28;20256;-74
2021/03/22 05:06:27;;;;;;;0.10;0.10;;;;;;;;;;5052744;28;20180;-74
2021/03/22 05:08:56;;;;;;;0.13;0.13;;;;;;;;;;5070330;28;20164;-75
2021/03/22 05:11:22;;;;;;;0.20;0.20;;;;;;;;;;5070261;28;20192;-75
2021/03/22 05:13:49;;;;;;;0.10;0.10;;;;;;;;;;5070593;28;20196;-74
2021/03/22 05:16:15;;;;;;;0.10;0.10;;;;;;;;;;5070247;28;20256;-74
2021/03/22 05:18:42;;;;;;;0.10;0.10;;;;;;;;;;5051174;28;20164;-74
2021/03/22 05:21:08;;;;;;;0.30;0.30;;;;;;;;;;5070350;28;20169;-74
2021/03/22 05:23:36;;;;;;;0.10;0.10;;;;;;;;;;5052343;28;20189;-74
2021/03/22 05:26:03;;;;;;;0.10;0.10;;;;;;;;;;5070147;28;20165;-74
2021/03/22 05:28:31;;;;;;;0.10;0.10;;;;;;;;;;5052219;28;20172;-74
2021/03/22 05:30:58;;;;;;;0.15;0.15;;;;;;;;;;5052083;28;20208;-74
2021/03/22 05:33:24;;;;;;;0.10;0.10;;;;;;;;;;5051971;28;20195;-74
2021/03/22 05:35:52;;;;;;;0.13;0.13;;;;;;;;;;5070087;28;20618;-74
2021/03/22 05:38:18;;;;;;;0.10;0.10;;;;;;;;;;5051640;28;20621;-74
2021/03/22 05:40:51;;;;;;;0.10;0.10;;;;;;;;;;5068468;28;20176;-76
2021/03/22 05:43:26;;;;;;;0.10;0.10;;;;;;;;;;5068587;28;20163;-75
2021/03/22 05:46:01;;;;;;;0.10;0.10;;;;;;;;;;5069316;28;20164;-74
2021/03/22 05:48:27;;;;;;;0.10;0.10;;;;;;;;;;5051055;28;20227;-74
2021/03/22 05:50:56;;;;;;;0.15;0.15;;;;;;;;;;5067918;28;20212;-74
2021/03/22 05:53:22;;;;;;;0.10;0.10;;;;;;;;;;5068928;28;20524;-74
2021/03/22 05:55:48;;;;;;;0.10;0.10;;;;;;;;;;5069746;28;20161;-75
2021/03/22 05:58:23;;;;;;;0.10;0.10;;;;;;;;;;5069391;28;20216;-75
2021/03/22 06:01:01;;;;;;;0.10;0.10;;;;;;;;;;5069501;28;20231;-75
2021/03/22 06:03:31;;;;;;;0.10;0.10;;;;;;;;;;5051349;28;20164;-74
2021/03/22 06:06:03;;;;;;;0.10;0.10;;;;;;;;;;5051486;28;20243;-74
2021/03/22 06:08:39;;;;;;;0.25;0.25;;;;;;;;;;5051217;28;20197;-74
2021/03/22 06:11:24;;;;;;;0.20;0.20;;;;;;;;;;5069298;28;20234;-74
2021/03/22 06:13:54;;;;;;;0.10;0.10;;;;;;;;;;5069016;28;20228;-74
2021/03/22 06:16:33;;;;;;;0.10;0.10;;;;;;;;;;5050708;28;20480;-75
2021/03/22 06:19:08;;;;;;;0.10;0.10;;;;;;;;;;5067689;28;20195;-73
2021/03/22 06:21:35;;;;;;;0.30;0.30;;;;;;;;;;5069167;28;20160;-75
2021/03/22 06:24:06;;;;;;;0.10;0.10;;;;;;;;;;5068733;28;20171;-75
2021/03/22 06:26:40;;;;;;;0.10;0.10;;;;;;;;;;5051072;28;20185;-75
2021/03/22 06:29:25;;;;;;;0.20;0.20;;;;;;;;;;5068594;28;20200;-75
2021/03/22 06:31:52;;;;;;;0.10;0.10;;;;;;;;;;5068874;28;20196;-75
2021/03/22 06:34:21;;;;;;;0.10;0.10;;;;;;;;;;5068150;28;20168;-75
2021/03/22 06:36:47;;;;;;;0.10;0.10;;;;;;;;;;5068870;28;20622;-75
2021/03/22 06:39:14;;;;;;;0.10;0.10;;;;;;;;;;5051083;28;20626;-75
2021/03/22 06:41:40;;;;;;;0.17;0.17;;;;;;;;;;5068517;28;20149;-74
2021/03/22 06:44:32;;;;;;;0.57;0.57;;;;;;;;;;5068798;28;20165;-75
2021/03/22 06:47:02;;;;;;;0.17;0.17;;;;;;;;;;5064085;28;20193;-75
2021/03/22 06:49:48;;;;;;;0.20;0.20;;;;;;;;;;5068622;28;20200;-76
2021/03/22 06:52:14;;;;;;;0.10;0.10;;;;;;;;;;5049386;28;20208;-75
2021/03/22 06:54:53;;;;;;;0.55;0.55;;;;;;;;;;5068553;28;20171;-76
2021/03/22 06:57:22;;;;;;;0.10;0.10;;;;;;;;;;5050506;28;20164;-76
2021/03/22 07:00:07;;;;;;;0.13;0.13;;;;;;;;;;5068573;28;20212;-76
2021/03/22 07:02:48;;;;;;;0.13;0.13;;;;;;;;;;5068565;28;20186;-75
2021/03/22 07:05:18;;;;;;;0.10;0.10;;;;;;;;;;5050699;28;20172;-76
2021/03/22 07:08:01;;;;;;;0.10;0.10;;;;;;;;;;5050012;28;20191;-75
2021/03/22 07:10:29;;;;;;;0.50;0.50;;;;;;;;;;5069611;28;20228;-74
2021/03/22 07:13:14;;;;;;;0.10;0.10;;;;;;;;;;5066817;28;20211;-73
2021/03/22 07:15:41;;;;;;;0.47;0.47;;;;;;;;;;5067968;28;20279;-74
2021/03/22 07:18:13;;;;;;;0.10;0.10;;;;;;;;;;5068180;28;20184;-74
2021/03/22 07:20:40;;;;;;;0.30;0.30;;;;;;;;;;5067916;28;20165;-74
2021/03/22 07:23:26;;;;;;;0.15;0.15;;;;;;;;;;5049317;28;20169;-74
2021/03/22 07:25:54;;;;;;;0.00;0.00;;;;;;;;;;5049339;28;20653;-73
2021/03/22 07:28:41;;;;;;;0.10;0.10;;;;;;;;;;5046440;28;20546;-73
2021/03/22 07:31:10;;;;;;;0.65;0.65;;;;;;;;;;5047966;28;20189;-73
2021/03/22 07:33:55;;;;;;;0.10;0.10;;;;;;;;;;5030512;28;20245;-73
2021/03/22 07:36:21;;;;;;;0.10;0.10;;;;;;;;;;5048218;28;20193;-73
2021/03/22 07:39:03;;;;;;;0.10;0.10;;;;;;;;;;5048236;28;20158;-73
2021/03/22 07:41:36;;;;;;;0.10;0.10;;;;;;;;;;5037207;28;20195;-73
2021/03/22 07:44:06;;;;;;;0.63;0.25;;;;;;;;;;5054111;28;20203;-74
2021/03/22 07:46:43;;;;;;;0.30;0.30;;;;;;;;;;5066362;28;20196;-73
2021/03/22 07:49:09;;;;;;;0.45;0.45;;;;;;;;;;5048199;28;20216;-73
2021/03/22 07:51:48;;;;;;;0.00;0.00;;;;;;;;;;5046406;28;20231;-73
2021/03/22 07:54:20;;;;;;;0.10;0.10;;;;;;;;;;5027885;28;20249;-73
2021/03/22 07:56:53;;;;;;;0.20;0.20;;;;;;;;;;5046239;28;20200;-74
2021/03/22 07:59:37;;;;;;;0.85;0.85;;;;;;;;;;5046050;28;20158;-74
2021/03/22 08:02:13;;;;;;;0.10;0.10;;;;;;;;;;5045977;28;20169;-73
2021/03/22 08:04:45;;;;;;;0.10;0.10;;;;;;;;;;5045869;28;20165;-73
2021/03/22 08:07:14;;;;;;;0.10;0.10;;;;;;;;;;5027744;28;20200;-73
2021/03/22 08:09:50;;;;;;;0.20;0.20;;;;;;;;;;5028192;28;20177;-74
2021/03/22 08:12:16;;;;;;;0.10;0.10;;;;;;;;;;5045927;28;20228;-73
2021/03/22 08:14:42;;;;;;;0.30;0.30;;;;;;;;;;5027763;28;20665;-73
2021/03/22 08:17:29;;;;;;;0.10;0.10;;;;;;;;;;5044666;28;20289;-73
2021/03/22 08:20:13;;;;;;;0.10;0.10;;;;;;;;;;5045638;28;20172;-73
2021/03/22 08:22:52;;;;;;;2.60;0.52;;;;;;;;;;5028080;28;20177;-73
2021/03/22 08:25:18;;;;;;;0.10;0.10;;;;;;;;;;5045603;28;20241;-73
2021/03/22 08:27:53;;;;;;;0.10;0.10;;;;;;;;;;5027028;28;20181;-74
2021/03/22 08:30:31;;;;;;;0.20;0.20;;;;;;;;;;5045704;28;20215;-73
2021/03/22 08:33:01;;;;;;;0.05;0.05;;;;;;;;;;5027651;28;20200;-74
2021/03/22 08:35:46;;;;;;;2.08;0.85;;;;;;;;;;5028043;28;20244;-74
2021/03/22 08:38:15;;;;;;;0.10;0.10;;;;;;;;;;5026694;28;20170;-74
2021/03/22 08:40:54;;;;;;;0.00;0.00;;;;;;;;;;5045404;28;20164;-74
2021/03/22 08:43:36;;;;;;;0.03;0.03;;;;;;;;;;5038331;28;20304;-74
2021/03/22 08:46:21;;;;;;;0.10;0.10;;;;;;;;;;5027295;28;20694;-73
2021/03/22 08:48:47;;;;;;;0.10;0.10;;;;;;;;;;5021688;28;20291;-73
2021/03/22 08:51:18;;;;;;;0.30;0.30;;;;;;;;;;5051473;28;20189;-73
2021/03/22 08:53:44;;;;;;;0.68;0.68;;;;;;;;;;5046651;28;20180;-73
2021/03/22 08:56:33;;;;;;;0.30;0.30;;;;;;;;;;5065140;28;20242;-73
2021/03/22 08:59:02;;;;;;;0.08;0.08;;;;;;;;;;5033926;28;20350;-73
2021/03/22 09:01:35;;;;;;;1.15;1.10;;;;;;;;;;5064713;28;20160;-72
2021/03/22 09:04:20;;;;;;;0.10;0.10;;;;;;;;;;5065170;28;20169;-74
2021/03/22 09:07:07;;;;;;;0.10;0.10;;;;;;;;;;5064944;28;20221;-73
2021/03/22 09:09:38;;;;;;;0.00;0.00;;;;;;;;;;5064749;28;20184;-73
2021/03/22 09:12:09;;;;;;;0.32;0.32;;;;;;;;;;5064234;28;20188;-72
2021/03/22 09:14:42;;;;;;;0.10;0.10;;;;;;;;;;5064851;28;20188;-73
2021/03/22 09:17:23;;;;;;;0.25;0.25;;;;;;;;;;5055485;28;20189;-72
2021/03/22 09:19:53;;;;;;;0.80;0.57;;;;;;;;;;5026875;28;20200;-73
2021/03/22 09:22:22;;;;;;;0.10;0.10;;;;;;;;;;5043820;28;20186;-73
2021/03/22 09:24:49;;;;;;;0.10;0.10;;;;;;;;;;5044686;28;20176;-73
2021/03/22 09:27:15;;;;;;;0.10;0.10;;;;;;;;;;5044493;28;20195;-73
2021/03/22 09:29:50;;;;;;;0.70;0.68;;;;;;;;;;5044667;28;20165;-73
2021/03/22 09:32:27;;;;;;;0.10;0.10;;;;;;;;;;5043780;28;20984;-73
2021/03/22 09:34:56;;;;;;;0.10;0.10;;;;;;;;;;5026284;28;20161;-73
2021/03/22 09:37:41;;;;;;;0.10;0.10;;;;;;;;;;5044342;28;20213;-72
2021/03/22 09:40:10;;;;;;;0.10;0.10;;;;;;;;;;5026241;28;20177;-72
2021/03/22 09:42:36;;;;;;;0.10;0.10;;;;;;;;;;5046755;28;20239;-72
2021/03/22 09:45:10;;;;;;;0.35;0.35;;;;;;;;;;5045956;28;20184;-73
2021/03/22 09:47:37;;;;;;;0.10;0.10;;;;;;;;;;5063766;28;20224;-72
2021/03/22 09:50:12;;;;;;;0.10;0.10;;;;;;;;;;5064162;28;20211;-73
2021/03/22 09:52:40;;;;;;;0.30;0.30;;;;;;;;;;5044245;28;20189;-73
2021/03/22 09:55:21;;;;;;;0.10;0.10;;;;;;;;;;5043258;28;20165;-72
2021/03/22 09:57:47;;;;;;;0.10;0.10;;;;;;;;;;5052418;28;20207;-73
2021/03/22 10:00:26;;;;;;;0.10;0.10;;;;;;;;;;5026482;28;20204;-72
2021/03/22 10:03:12;;;;;;;0.20;0.20;;;;;;;;;;5043027;28;20211;-71
2021/03/22 10:05:56;;;;;;;0.10;0.10;;;;;;;;;;5045859;28;20236;-74
2021/03/22 10:08:29;;;;;;;0.20;0.20;;;;;;;;;;5063818;28;20165;-74
2021/03/22 10:11:00;;;;;;;0.32;0.32;;;;;;;;;;5060370;28;20210;-72
2021/03/22 10:13:29;;;;;;;1.65;1.17;;;;;;;;;;5063668;28;20183;-71
2021/03/22 10:15:56;;;;;;;0.10;0.10;;;;;;;;;;5045220;28;20165;-74
2021/03/22 10:18:26;;;;;;;0.47;0.47;;;;;;;;;;5045622;28;20248;-74
2021/03/22 10:21:02;;;;;;;0.10;0.10;;;;;;;;;;5045589;28;20165;-73
2021/03/22 10:23:28;;;;;;;0.10;0.10;;;;;;;;;;5063738;28;20164;-74
2021/03/22 10:26:06;;;;;;;0.55;0.45;;;;;;;;;;5062769;28;20176;-74
2021/03/22 10:28:32;;;;;;;0.00;0.00;;;;;;;;;;5045267;28;20196;-74
2021/03/22 10:30:58;;;;;;;0.20;0.20;;;;;;;;;;5063095;28;20169;-74
2021/03/22 10:33:25;;;;;;;0.10;0.10;;;;;;;;;;5062967;28;20169;-73
2021/03/22 10:35:57;;;;;;;0.05;0.05;;;;;;;;;;5055473;28;20177;-73
2021/03/22 10:38:28;;;;;;;0.10;0.10;;;;;;;;;;5042334;28;20162;-74
2021/03/22 10:40:54;;;;;;;0.10;0.10;;;;;;;;;;5043279;28;20165;-74
2021/03/22 10:43:24;;;;;;;17.17;1.27;;;;;;;;;;5025401;28;20161;-74
2021/03/22 10:45:50;;;;;;;0.10;0.10;;;;;;;;;;5043201;28;20165;-74
2021/03/22 10:48:21;;;;;;;0.08;0.08;;;;;;;;;;5031762;28;20247;-74
2021/03/22 10:50:47;;;;;;;0.20;0.20;;;;;;;;;;5027705;28;20253;-73
2021/03/22 10:53:15;;;;;;;0.68;0.68;;;;;;;;;;5028917;28;20181;-73
2021/03/22 10:55:43;;;;;;;0.20;0.20;;;;;;;;;;5028609;28;20173;-68
2021/03/22 10:58:18;;;;;;;0.27;0.27;;;;;;;;;;5010127;28;20400;-68
2021/03/22 11:00:45;;;;;;;0.10;0.10;;;;;;;;;;5011029;28;20503;-69
2021/03/22 11:03:19;;;;;;;0.10;0.10;;;;;;;;;;5064095;28;20668;-68
2021/03/22 11:05:45;;;;;;;0.10;0.10;;;;;;;;;;5068481;28;20161;-68
2021/03/22 11:08:37;;;;;;;0.10;0.10;;;;;;;;;;5068432;28;20168;-68
2021/03/22 11:11:03;;;;;;;0.10;0.10;;;;;;;;;;5051818;28;20199;-68
2021/03/22 11:13:31;;;;;;;0.10;0.10;;;;;;;;;;5028455;28;20261;-68
2021/03/22 11:15:58;;;;;;;0.50;0.50;;;;;;;;;;5048339;28;20200;-68
2021/03/22 11:18:25;;;;;;;0.10;0.10;;;;;;;;;;5052273;28;20189;-68
2021/03/22 11:20:53;;;;;;;0.25;0.25;;;;;;;;;;5052423;28;20670;-68
2021/03/22 11:23:25;;;;;;;0.10;0.10;;;;;;;;;;5052417;28;20168;-68
2021/03/22 11:25:52;;;;;;;0.10;0.10;;;;;;;;;;5034324;28;20516;-68
2021/03/22 11:28:18;;;;;;;0.20;0.20;;;;;;;;;;5034194;28;20181;-68
2021/03/22 11:30:50;;;;;;;0.10;0.10;;;;;;;;;;5046817;28;20228;-68
2021/03/22 11:33:27;;;;;;;0.20;0.20;;;;;;;;;;5014535;28;20613;-68
2021/03/22 11:36:13;;;;;;;0.10;0.10;;;;;;;;;;5026159;28;20164;-68
2021/03/22 11:38:46;;;;;;;1.38;1.35;;;;;;;;;;5053910;28;20156;-68
2021/03/22 11:41:31;;;;;;;0.10;0.10;;;;;;;;;;5072009;28;20266;-68
2021/03/22 11:44:18;;;;;;;0.10;0.10;;;;;;;;;;5053609;28;20188;-68
2021/03/22 11:46:46;;;;;;;0.10;0.10;;;;;;;;;;5071775;28;20161;-69
2021/03/22 11:49:30;;;;;;;0.10;0.10;;;;;;;;;;5090068;28;20224;-69
2021/03/22 11:51:57;;;;;;;0.20;0.20;;;;;;;;;;5073746;28;20192;-68
2021/03/22 11:54:24;;;;;;;0.10;0.10;;;;;;;;;;5091712;28;20184;-69
2021/03/22 11:57:13;;;;;;;0.15;0.15;;;;;;;;;;5091576;28;20165;-68
2021/03/22 11:59:46;;;;;;;0.10;0.10;;;;;;;;;;5090854;28;20208;-68
2021/03/22 12:02:13;;;;;;;0.17;0.17;;;;;;;;;;5091347;28;20184;-68
2021/03/22 12:04:40;;;;;;;0.17;0.17;;;;;;;;;;5090106;28;20190;-69
2021/03/22 12:07:07;;;;;;;0.85;0.63;;;;;;;;;;5072265;28;20169;-72
2021/03/22 12:09:35;;;;;;;0.17;0.17;;;;;;;;;;5071149;28;20196;-70
2021/03/22 12:12:05;;;;;;;0.10;0.10;;;;;;;;;;5071115;28;20192;-70
2021/03/22 12:14:31;;;;;;;0.10;0.10;;;;;;;;;;5071115;28;20160;-73
2021/03/22 12:17:01;;;;;;;0.20;0.20;;;;;;;;;;5053031;28;20269;-72
2021/03/22 12:19:34;;;;;;;0.10;0.10;;;;;;;;;;5071197;28;20188;-72
2021/03/22 12:22:00;;;;;;;0.10;0.10;;;;;;;;;;5070945;28;20665;-72
2021/03/22 12:24:26;;;;;;;0.10;0.10;;;;;;;;;;5069408;28;20161;-72
2021/03/22 12:26:52;;;;;;;0.13;0.13;;;;;;;;;;5069351;28;20220;-71
2021/03/22 12:29:18;;;;;;;0.10;0.10;;;;;;;;;;5071145;28;20165;-71
2021/03/22 12:31:46;;;;;;;0.10;0.10;;;;;;;;;;5052602;28;20208;-70
2021/03/22 12:34:15;;;;;;;0.10;0.10;;;;;;;;;;5071133;28;20165;-69
2021/03/22 12:36:42;;;;;;;0.10;0.10;;;;;;;;;;5070949;28;20157;-71
2021/03/22 12:39:22;;;;;;;0.10;0.10;;;;;;;;;;5052925;28;20176;-69
2021/03/22 12:41:50;;;;;;;0.43;0.43;;;;;;;;;;5070634;28;20220;-69
2021/03/22 12:44:16;;;;;;;2.17;0.77;;;;;;;;;;5070573;28;20188;-70
2021/03/22 12:46:42;;;;;;;0.40;0.40;;;;;;;;;;5070450;28;20163;-70
2021/03/22 12:49:12;;;;;;;0.10;0.10;;;;;;;;;;5052496;28;20232;-69
2021/03/22 12:51:39;;;;;;;0.10;0.10;;;;;;;;;;5052545;28;20201;-70
2021/03/22 12:54:05;;;;;;;0.10;0.10;;;;;;;;;;5052538;28;20252;-70
2021/03/22 12:56:31;;;;;;;0.10;0.10;;;;;;;;;;5069499;28;20164;-69
2021/03/22 12:58:58;;;;;;;0.30;0.30;;;;;;;;;;5070309;28;20168;-71
2021/03/22 13:01:24;;;;;;;0.10;0.10;;;;;;;;;;5087619;28;20184;-69
2021/03/22 13:03:51;;;;;;;0.20;0.20;;;;;;;;;;5082447;28;20176;-69
2021/03/22 13:06:19;;;;;;;0.10;0.10;;;;;;;;;;5090133;28;20164;-71
2021/03/22 13:08:46;;;;;;;0.73;0.73;;;;;;;;;;5071809;28;20184;-69
2021/03/22 13:11:13;;;;;;;0.10;0.10;;;;;;;;;;5063959;28;20248;-70
2021/03/22 13:13:39;;;;;;;0.10;0.10;;;;;;;;;;5071984;28;20191;-70
2021/03/22 13:16:06;;;;;;;0.10;0.10;;;;;;;;;;5090273;28;20163;-70
2021/03/22 13:18:33;;;;;;;0.13;0.13;;;;;;;;;;5089666;28;20335;-70
2021/03/22 13:21:01;;;;;;;0.20;0.20;;;;;;;;;;5090124;28;20156;-71
2021/03/22 13:23:28;;;;;;;0.25;0.25;;;;;;;;;;5071981;28;20199;-70
2021/03/22 13:25:55;;;;;;;0.65;0.65;;;;;;;;;;5071848;28;20180;-70
2021/03/22 13:28:26;;;;;;;0.60;0.60;;;;;;;;;;5072082;28;20175;-71
2021/03/22 13:31:00;;;;;;;0.10;0.10;;;;;;;;;;5071255;28;20176;-71
2021/03/22 13:33:28;;;;;;;0.10;0.10;;;;;;;;;;5089730;28;20200;-69
2021/03/22 13:35:54;;;;;;;0.10;0.10;;;;;;;;;;5089934;28;20152;-69
2021/03/22 13:38:22;;;;;;;0.10;0.10;;;;;;;;;;5088963;28;20148;-69
2021/03/22 13:40:48;;;;;;;0.10;0.10;;;;;;;;;;5089349;28;20160;-70
2021/03/22 13:43:16;;;;;;;1.27;0.45;;;;;;;;;;5071509;28;20196;-70
2021/03/22 13:45:42;;;;;;;0.10;0.10;;;;;;;;;;5071728;28;20183;-69
2021/03/22 13:48:12;;;;;;;0.10;0.10;;;;;;;;;;5089473;28;20273;-70
2021/03/22 13:50:39;;;;;;;0.10;0.10;;;;;;;;;;5073830;28;20212;-70
2021/03/22 13:53:05;;;;;;;0.10;0.10;;;;;;;;;;5068004;28;20210;-69
2021/03/22 13:55:31;;;;;;;0.10;0.10;;;;;;;;;;5069499;28;20216;-70
2021/03/22 13:57:57;;;;;;;0.10;0.10;;;;;;;;;;5069348;28;20160;-69
2021/03/22 14:00:24;;;;;;;0.13;0.13;;;;;;;;;;5069240;28;20197;-69
2021/03/22 14:02:50;;;;;;;0.10;0.10;;;;;;;;;;5047966;28;20189;-70
2021/03/22 14:05:21;;;;;;;0.10;0.10;;;;;;;;;;5031355;28;20196;-71
2021/03/22 14:07:48;;;;;;;0.55;0.55;;;;;;;;;;5048841;28;20176;-70
2021/03/22 14:10:15;;;;;;;0.10;0.10;;;;;;;;;;5058711;28;20215;-70
2021/03/22 14:12:42;;;;;;;0.08;0.08;;;;;;;;;;5051007;28;21043;-69
2021/03/22 14:15:11;;;;;;;0.10;0.10;;;;;;;;;;5086924;28;20187;-70
2021/03/22 14:17:37;;;;;;;0.10;0.10;;;;;;;;;;5088890;28;20152;-69
2021/03/22 14:20:04;;;;;;;0.10;0.10;;;;;;;;;;5070963;28;20198;-69
2021/03/22 14:22:30;;;;;;;0.10;0.10;;;;;;;;;;5071021;28;20180;-69
2021/03/22 14:24:56;;;;;;;0.30;0.30;;;;;;;;;;5070807;28;20172;-69
2021/03/22 14:27:22;;;;;;;0.35;0.35;;;;;;;;;;5088803;28;20175;-69
2021/03/22 14:29:48;;;;;;;0.63;0.63;;;;;;;;;;5070697;28;20196;-70
2021/03/22 14:32:15;;;;;;;0.20;0.20;;;;;;;;;;5088772;28;20191;-69
2021/03/22 14:34:41;;;;;;;0.15;0.15;;;;;;;;;;5088700;28;20164;-69
2021/03/22 14:37:07;;;;;;;0.10;0.10;;;;;;;;;;5088796;28;20187;-71
2021/03/22 14:39:33;;;;;;;0.20;0.20;;;;;;;;;;5088719;28;20195;-70
2021/03/22 14:42:00;;;;;;;1.15;0.75;;;;;;;;;;5088933;28;20214;-72
2021/03/22 14:44:26;;;;;;;0.10;0.10;;;;;;;;;;5088718;28;20615;-69
2021/03/22 14:46:52;;;;;;;0.10;0.10;;;;;;;;;;5070499;28;20176;-68
2021/03/22 14:49:19;;;;;;;0.10;0.10;;;;;;;;;;5088405;28;20249;-68
2021/03/22 14:51:45;;;;;;;0.20;0.20;;;;;;;;;;5070217;28;20199;-70
2021/03/22 14:54:11;;;;;;;0.10;0.10;;;;;;;;;;5088495;28;20167;-70
2021/03/22 14:56:37;;;;;;;0.10;0.10;;;;;;;;;;5088607;28;20148;-69
2021/03/22 14:59:04;;;;;;;0.10;0.10;;;;;;;;;;5088202;28;20223;-70
2021/03/22 15:01:30;;;;;;;0.32;0.32;;;;;;;;;;5070543;28;20175;-71